Time;durP1;ratioP1;P1;durP2;ratioP2;P2;SDS_P1;SDS_P2;PMS_P1;PMS_P2;Temp;Humidity;BMP_temperature;BMP_pressure;BME280_temperature;BME280_humidity;BME280_pressure;Samples;Min_cycle;Max_cycle;Signal;HPM_P1;HPM_P2
2020/12/24 07:06:10;;;;;;;;;;;11.30;82.90;;;;;;4869537;28;118005;-83
2020/12/24 07:21:04;;;;;;;;;;;11.30;82.20;;;;;;4849342;29;117996;-83
2020/12/24 07:25:00;;;;;;;;;;;;;;;;;;;;;
2020/12/24 07:43:41;;;;;;;;;;;11.40;82.10;;;;;;4755527;29;117449;-83
2020/12/24 07:46:57;;;;;;;;;;;;;;;;;;;;;
2020/12/24 07:57:01;;;;;;;;;;;;;;;;;;;;;
2020/12/24 08:02:44;;;;;;;;;;;;;;;;;;;;;
2020/12/24 08:05:57;;;;;;;;;;;11.30;81.70;;;;;;4756238;29;146658;-83
2020/12/24 08:08:25;;;;;;;;;;;11.30;81.90;;;;;;4803108;28;119531;-83
2020/12/24 08:10:53;;;;;;;;;;;11.30;81.80;;;;;;4870713;28;117968;-83
2020/12/24 08:13:27;;;;;;;;;;;11.30;81.90;;;;;;4853894;28;119287;-83
2020/12/24 08:16:03;;;;;;;;;;;11.30;81.40;;;;;;4853636;28;119950;-83
2020/12/24 08:25:29;;;;;;;;;;;11.30;81.50;;;;;;4851666;28;118751;-83
2020/12/24 08:31:50;;;;;;;;;;;;;;;;;;;;;
2020/12/24 08:34:11;;;;;;;;;;;11.30;81.50;;;;;;4865566;28;117771;-83
2020/12/24 08:40:32;;;;;;;;;;;;;;;;;;;;;
2020/12/24 08:43:51;;;;;;;;;;;11.30;81.60;;;;;;4869742;28;120532;-83
2020/12/24 08:46:55;;;;;;;;;;;11.30;81.50;;;;;;4868936;28;117732;-83
2020/12/24 08:49:46;;;;;;;;;;;11.20;81.10;;;;;;4856992;28;119520;-83
2020/12/24 08:52:27;;;;;;;;;;;11.20;81.50;;;;;;4864749;28;118097;-83
2020/12/24 08:55:09;;;;;;;;;;;11.20;81.40;;;;;;4855559;28;118015;-83
2020/12/24 08:58:02;;;;;;;;;;;11.20;80.60;;;;;;4854270;28;117806;-83
2020/12/24 09:01:03;;;;;;;;;;;11.20;81.20;;;;;;4866680;28;118864;-83
2020/12/24 09:03:49;;;;;;;;;;;11.20;80.50;;;;;;4847250;29;118767;-83
2020/12/24 09:07:22;;;;;;;;;;;11.20;81.00;;;;;;4848038;29;117695;-83
2020/12/24 09:09:49;;;;;;;;;;;11.20;81.40;;;;;;4844498;28;117870;-83
2020/12/24 09:18:49;;;;;;;;;;;11.20;80.90;;;;;;4841312;29;117790;-83
2020/12/24 09:21:52;;;;;;;;;;;11.10;80.10;;;;;;4807251;29;117435;-83
2020/12/24 09:24:49;;;;;;;;;;;11.20;80.60;;;;;;4847557;28;120689;-83
2020/12/24 09:27:40;;;;;;;;;;;;;;;;;;;;;
2020/12/24 09:30:14;;;;;;;;;;;11.20;81.30;;;;;;4867897;28;121683;-83
2020/12/24 09:32:47;;;;;;;;;;;11.20;80.70;;;;;;4853580;28;117421;-83
2020/12/24 09:35:24;;;;;;;;;;;11.10;81.00;;;;;;4868181;28;117626;-83
2020/12/24 09:37:55;;;;;;;;;;;11.20;81.40;;;;;;4868560;28;117985;-83
2020/12/24 09:40:23;;;;;;;;;;;11.20;80.70;;;;;;4853840;28;117676;-83
2020/12/24 09:42:55;;;;;;;;;;;11.20;80.80;;;;;;4853046;28;117865;-83
2020/12/24 09:45:23;;;;;;;;;;;11.20;80.90;;;;;;4868230;28;118725;-83
2020/12/24 09:47:49;;;;;;;;;;;11.20;80.80;;;;;;4868348;28;118021;-83
2020/12/24 09:50:22;;;;;;;;;;;11.20;81.10;;;;;;4852680;28;117695;-83
2020/12/24 09:52:48;;;;;;;;;;;11.10;81.30;;;;;;4854037;28;117409;-83
2020/12/24 09:55:14;;;;;;;;;;;11.10;81.20;;;;;;4852327;28;117643;-83
2020/12/24 09:57:42;;;;;;;;;;;11.10;81.10;;;;;;4871280;28;117554;-83
2020/12/24 10:00:10;;;;;;;;;;;11.20;81.00;;;;;;4855658;28;117687;-83
2020/12/24 10:02:41;;;;;;;;;;;11.20;81.20;;;;;;4855736;28;117640;-83
2020/12/24 10:05:14;;;;;;;;;;;11.20;81.10;;;;;;4870537;28;118415;-83
2020/12/24 10:07:42;;;;;;;;;;;11.10;81.20;;;;;;4855103;28;118384;-83
2020/12/24 10:10:17;;;;;;;;;;;11.10;81.20;;;;;;4854948;28;117995;-83
2020/12/24 10:12:54;;;;;;;;;;;11.10;80.70;;;;;;4870858;28;117445;-83
2020/12/24 10:15:32;;;;;;;;;;;11.10;80.60;;;;;;4855614;28;119270;-83
2020/12/24 10:21:34;;;;;;;;;;;11.10;80.70;;;;;;4851274;29;117815;-84
2020/12/24 10:24:12;;;;;;;;;;;;;;;;;;;;;
2020/12/24 10:27:33;;;;;;;;;;;11.10;80.70;;;;;;4848721;29;148006;-84
2020/12/24 10:30:17;;;;;;;;;;;11.10;80.10;;;;;;4848505;28;117960;-83
2020/12/24 10:32:42;;;;;;;;;;;11.10;80.30;;;;;;4835678;29;117962;-84
2020/12/24 10:35:10;;;;;;;;;;;11.00;80.60;;;;;;4850043;28;118403;-84
2020/12/24 10:37:49;;;;;;;;;;;11.00;80.40;;;;;;4850410;29;117706;-84
2020/12/24 10:40:27;;;;;;;;;;;11.00;80.40;;;;;;4848122;28;119732;-83
2020/12/24 10:42:55;;;;;;;;;;;11.00;80.20;;;;;;4850954;29;117846;-84
2020/12/24 10:45:28;;;;;;;;;;;11.00;80.60;;;;;;4864434;28;117513;-84
2020/12/24 10:47:56;;;;;;;;;;;11.00;80.80;;;;;;4855096;28;118508;-84
2020/12/24 10:50:25;;;;;;;;;;;11.00;80.70;;;;;;4853968;28;119567;-84
2020/12/24 10:53:10;;;;;;;;;;;11.00;80.60;;;;;;4870567;28;117457;-84
2020/12/24 10:55:44;;;;;;;;;;;11.00;80.40;;;;;;4857279;28;117378;-84
2020/12/24 10:58:41;;;;;;;;;;;11.00;80.50;;;;;;4870144;28;118627;-84
2020/12/24 11:01:16;;;;;;;;;;;11.00;81.00;;;;;;4865887;28;119542;-84
2020/12/24 11:03:41;;;;;;;;;;;11.00;80.30;;;;;;4854140;28;117566;-84
2020/12/24 11:06:07;;;;;;;;;;;11.00;80.60;;;;;;4854600;28;118124;-84
2020/12/24 11:08:33;;;;;;;;;;;11.00;80.80;;;;;;4853378;28;117624;-84
2020/12/24 11:10:59;;;;;;;;;;;11.00;80.60;;;;;;4853571;28;118910;-84
2020/12/24 11:13:24;;;;;;;;;;;11.00;80.70;;;;;;4855033;28;117466;-83
2020/12/24 11:15:50;;;;;;;;;;;11.00;80.70;;;;;;4855430;28;117795;-83
2020/12/24 11:18:15;;;;;;;;;;;11.00;81.00;;;;;;4854243;28;120435;-83
2020/12/24 11:20:41;;;;;;;;;;;11.00;81.00;;;;;;4854240;28;117985;-83
2020/12/24 11:23:09;;;;;;;;;;;11.00;80.80;;;;;;4855333;28;117578;-83
2020/12/24 11:25:35;;;;;;;;;;;11.00;80.90;;;;;;4854940;28;117843;-83
2020/12/24 11:28:07;;;;;;;;;;;11.00;80.70;;;;;;4853970;28;119639;-83
2020/12/24 11:30:35;;;;;;;;;;;11.00;80.60;;;;;;4854584;28;118752;-83
2020/12/24 11:33:03;;;;;;;;;;;11.00;80.80;;;;;;4855165;28;117509;-83
2020/12/24 11:35:36;;;;;;;;;;;11.00;81.10;;;;;;4855493;28;118018;-83
2020/12/24 11:38:02;;;;;;;;;;;11.00;81.20;;;;;;4853918;28;119732;-83
2020/12/24 11:40:27;;;;;;;;;;;11.00;80.90;;;;;;4853848;28;117831;-83
2020/12/24 11:42:53;;;;;;;;;;;11.00;80.90;;;;;;4854606;28;117568;-83
2020/12/24 11:45:18;;;;;;;;;;;11.00;80.70;;;;;;4870740;28;117618;-83
2020/12/24 11:47:44;;;;;;;;;;;11.00;81.10;;;;;;4869715;28;120384;-83
2020/12/24 11:50:20;;;;;;;;;;;11.00;81.20;;;;;;4855345;28;117988;-84
2020/12/24 11:53:02;;;;;;;;;;;11.00;80.60;;;;;;4873505;28;117620;-85
2020/12/24 12:02:31;;;;;;;;;;;11.00;81.00;;;;;;4870249;28;117775;-84
2020/12/24 12:11:15;;;;;;;;;;;11.00;80.60;;;;;;4826005;29;117657;-83
2020/12/24 12:13:43;;;;;;;;;;;11.00;80.90;;;;;;4814590;29;117900;-84
2020/12/24 12:16:10;;;;;;;;;;;11.00;81.00;;;;;;4798899;29;117567;-82
2020/12/24 12:18:35;;;;;;;;;;;11.00;80.90;;;;;;4796818;29;118406;-82
2020/12/24 12:21:01;;;;;;;;;;;11.00;81.00;;;;;;4801949;28;118439;-82
2020/12/24 12:23:27;;;;;;;;;;;11.00;81.00;;;;;;4855885;28;117705;-82
2020/12/24 12:25:52;;;;;;;;;;;11.00;81.00;;;;;;4856635;28;117564;-82
2020/12/24 12:28:18;;;;;;;;;;;11.00;81.10;;;;;;4870099;28;117870;-82
2020/12/24 12:30:43;;;;;;;;;;;10.90;81.00;;;;;;4853542;28;120239;-82
2020/12/24 12:33:09;;;;;;;;;;;11.00;81.20;;;;;;4869025;28;117415;-82
2020/12/24 12:35:34;;;;;;;;;;;11.00;81.30;;;;;;4854255;28;117608;-82
2020/12/24 12:38:00;;;;;;;;;;;11.00;81.30;;;;;;4854511;28;117863;-82
2020/12/24 12:40:25;;;;;;;;;;;11.00;81.40;;;;;;4852945;28;119530;-82
2020/12/24 12:42:51;;;;;;;;;;;11.00;81.30;;;;;;4852744;28;120464;-82
2020/12/24 12:45:16;;;;;;;;;;;11.00;81.30;;;;;;4869873;28;117586;-82
2020/12/24 12:47:42;;;;;;;;;;;11.00;81.30;;;;;;4854660;28;117814;-82
2020/12/24 12:50:09;;;;;;;;;;;11.00;81.40;;;;;;4869063;28;119340;-82
2020/12/24 12:52:35;;;;;;;;;;;10.90;81.40;;;;;;4853262;28;119286;-82
2020/12/24 12:55:01;;;;;;;;;;;11.00;81.50;;;;;;4854682;28;117613;-82
2020/12/24 12:57:26;;;;;;;;;;;11.00;81.40;;;;;;4854576;28;117881;-82
2020/12/24 12:59:52;;;;;;;;;;;11.00;81.40;;;;;;4853642;28;118881;-82
2020/12/24 13:02:17;;;;;;;;;;;11.00;81.50;;;;;;4870137;28;118253;-82
2020/12/24 13:04:43;;;;;;;;;;;11.00;81.40;;;;;;4870875;28;117571;-82
2020/12/24 13:07:08;;;;;;;;;;;11.00;81.40;;;;;;4854204;28;117477;-82
2020/12/24 13:09:35;;;;;;;;;;;11.00;81.40;;;;;;4870123;28;117735;-82
2020/12/24 13:12:00;;;;;;;;;;;10.90;81.50;;;;;;4854564;28;119834;-82
2020/12/24 13:14:26;;;;;;;;;;;11.00;81.40;;;;;;4855642;28;117544;-82
2020/12/24 13:16:52;;;;;;;;;;;10.90;81.00;;;;;;4855845;28;117649;-82
2020/12/24 13:19:22;;;;;;;;;;;10.90;81.30;;;;;;4870778;28;118695;-82
2020/12/24 13:21:48;;;;;;;;;;;10.90;81.50;;;;;;4855544;28;117741;-82
2020/12/24 13:24:13;;;;;;;;;;;11.00;81.50;;;;;;4855909;28;117426;-82
2020/12/24 13:26:40;;;;;;;;;;;10.90;81.60;;;;;;4856748;28;117833;-82
2020/12/24 13:29:11;;;;;;;;;;;10.90;81.10;;;;;;4855602;28;120586;-83
2020/12/24 13:31:39;;;;;;;;;;;10.90;81.40;;;;;;4855488;28;119763;-83
2020/12/24 13:34:08;;;;;;;;;;;10.90;81.50;;;;;;4872955;28;117367;-83
2020/12/24 13:36:39;;;;;;;;;;;10.90;81.40;;;;;;4857297;28;117743;-83
2020/12/24 13:39:08;;;;;;;;;;;10.90;81.50;;;;;;4857002;28;117706;-83
2020/12/24 13:41:34;;;;;;;;;;;10.90;81.50;;;;;;4852981;28;119926;-83
2020/12/24 13:43:59;;;;;;;;;;;10.90;81.10;;;;;;4853310;28;117560;-83
2020/12/24 13:46:29;;;;;;;;;;;10.90;81.20;;;;;;4869365;28;117376;-83
2020/12/24 13:48:55;;;;;;;;;;;10.90;81.20;;;;;;4853266;28;118912;-83
2020/12/24 13:51:23;;;;;;;;;;;10.90;81.40;;;;;;4852718;28;118366;-83
2020/12/24 13:53:51;;;;;;;;;;;10.90;81.30;;;;;;4853844;28;117694;-83
2020/12/24 13:56:17;;;;;;;;;;;10.90;81.40;;;;;;4853600;28;117913;-83
2020/12/24 13:58:51;;;;;;;;;;;10.90;81.40;;;;;;4852382;28;118714;-83
2020/12/24 14:01:17;;;;;;;;;;;10.90;81.20;;;;;;4853279;28;120022;-83
2020/12/24 14:03:45;;;;;;;;;;;10.90;81.40;;;;;;4853541;28;117847;-83
2020/12/24 14:06:14;;;;;;;;;;;10.90;81.50;;;;;;4854313;28;117860;-83
2020/12/24 14:08:42;;;;;;;;;;;10.90;81.40;;;;;;4852199;28;118667;-82
2020/12/24 14:11:08;;;;;;;;;;;10.90;81.30;;;;;;4852881;28;118511;-82
2020/12/24 14:13:34;;;;;;;;;;;10.90;81.30;;;;;;4853961;28;117760;-82
2020/12/24 14:16:00;;;;;;;;;;;10.90;81.30;;;;;;4854161;28;117733;-82
2020/12/24 14:18:25;;;;;;;;;;;10.90;81.50;;;;;;4852664;28;119215;-82
2020/12/24 14:20:51;;;;;;;;;;;10.90;81.50;;;;;;4852585;28;117922;-82
2020/12/24 14:23:17;;;;;;;;;;;10.90;81.10;;;;;;4853891;28;117545;-82
2020/12/24 14:25:42;;;;;;;;;;;10.90;81.40;;;;;;4854673;28;117489;-82
2020/12/24 14:28:08;;;;;;;;;;;10.90;81.50;;;;;;4869654;28;117581;-82
2020/12/24 14:30:33;;;;;;;;;;;10.90;81.40;;;;;;4853105;28;117625;-82
2020/12/24 14:32:59;;;;;;;;;;;10.90;81.50;;;;;;4854883;28;117265;-82
2020/12/24 14:35:25;;;;;;;;;;;10.90;81.50;;;;;;4871151;28;117756;-82
2020/12/24 14:37:50;;;;;;;;;;;10.90;81.50;;;;;;4853506;28;119150;-82
2020/12/24 14:40:16;;;;;;;;;;;10.90;81.50;;;;;;4853684;28;118623;-82
2020/12/24 14:42:42;;;;;;;;;;;10.90;81.40;;;;;;4856513;28;117625;-82
2020/12/24 14:45:08;;;;;;;;;;;10.90;81.40;;;;;;4858246;28;117743;-82
2020/12/24 14:47:33;;;;;;;;;;;10.90;81.40;;;;;;4857614;28;118409;-83
2020/12/24 14:49:59;;;;;;;;;;;10.90;81.50;;;;;;4857687;28;118682;-83
2020/12/24 14:52:25;;;;;;;;;;;10.90;81.60;;;;;;4875457;28;117559;-82
2020/12/24 14:54:50;;;;;;;;;;;10.90;81.60;;;;;;4872576;28;117912;-82
2020/12/24 14:57:16;;;;;;;;;;;10.90;81.40;;;;;;4854737;28;120615;-82
2020/12/24 14:59:41;;;;;;;;;;;10.90;81.50;;;;;;4854481;28;119488;-82
2020/12/24 15:02:07;;;;;;;;;;;10.90;81.50;;;;;;4855887;28;117476;-82
2020/12/24 15:04:33;;;;;;;;;;;10.90;81.60;;;;;;4856094;28;117827;-82
2020/12/24 15:06:58;;;;;;;;;;;10.90;81.50;;;;;;4854233;28;121107;-82
2020/12/24 15:09:24;;;;;;;;;;;10.90;81.60;;;;;;4854177;28;118228;-82
2020/12/24 15:11:49;;;;;;;;;;;10.90;81.50;;;;;;4855890;28;117532;-82
2020/12/24 15:14:15;;;;;;;;;;;10.90;81.50;;;;;;4855983;28;117875;-82
2020/12/24 15:19:44;;;;;;;;;;;10.90;81.60;;;;;;4870890;28;117377;-83
2020/12/24 15:22:15;;;;;;;;;;;10.90;81.40;;;;;;4873331;28;117698;-82
2020/12/24 15:24:41;;;;;;;;;;;10.90;81.60;;;;;;4858461;28;117482;-82
2020/12/24 15:27:11;;;;;;;;;;;10.90;81.60;;;;;;4856314;28;119823;-82
2020/12/24 15:29:37;;;;;;;;;;;10.90;81.70;;;;;;4872109;28;119894;-83
2020/12/24 15:32:03;;;;;;;;;;;10.90;81.50;;;;;;4857748;28;117363;-83
2020/12/24 15:34:31;;;;;;;;;;;10.90;81.60;;;;;;4856878;28;117450;-83
2020/12/24 15:36:56;;;;;;;;;;;10.90;81.60;;;;;;4857236;28;118623;-82
2020/12/24 15:39:28;;;;;;;;;;;10.90;81.60;;;;;;4857102;28;120105;-82
2020/12/24 15:41:53;;;;;;;;;;;10.90;81.50;;;;;;4858763;28;117389;-82
2020/12/24 15:44:22;;;;;;;;;;;10.90;81.60;;;;;;4875229;28;117490;-82
2020/12/24 15:46:47;;;;;;;;;;;10.90;81.50;;;;;;4858205;28;119520;-82
2020/12/24 15:49:15;;;;;;;;;;;10.90;81.50;;;;;;4874403;28;118709;-82
2020/12/24 15:51:46;;;;;;;;;;;10.90;81.50;;;;;;4876412;28;117393;-82
2020/12/24 15:54:12;;;;;;;;;;;10.90;81.40;;;;;;4861087;28;117729;-82
2020/12/24 15:56:38;;;;;;;;;;;10.90;81.40;;;;;;4859272;28;117513;-82
2020/12/24 15:59:06;;;;;;;;;;;10.90;81.40;;;;;;4859693;28;118683;-82
2020/12/24 16:01:33;;;;;;;;;;;10.90;81.50;;;;;;4861843;28;117270;-82
2020/12/24 16:03:59;;;;;;;;;;;10.90;81.40;;;;;;4877767;28;117383;-82
2020/12/24 16:06:25;;;;;;;;;;;10.90;81.50;;;;;;4861179;28;120884;-82
2020/12/24 16:08:51;;;;;;;;;;;10.90;81.40;;;;;;4854627;28;118288;-83
2020/12/24 16:11:17;;;;;;;;;;;10.90;81.50;;;;;;4855917;28;117385;-83
2020/12/24 16:13:43;;;;;;;;;;;10.90;81.40;;;;;;4855919;28;117958;-83
2020/12/24 16:16:10;;;;;;;;;;;10.90;81.50;;;;;;4870824;28;117848;-83
2020/12/24 16:18:35;;;;;;;;;;;10.90;81.40;;;;;;4854524;28;119774;-83
2020/12/24 16:21:01;;;;;;;;;;;10.90;81.40;;;;;;4855321;28;117731;-82
2020/12/24 16:23:26;;;;;;;;;;;10.90;81.40;;;;;;4855531;28;117332;-82
2020/12/24 16:25:52;;;;;;;;;;;10.90;81.40;;;;;;4870991;28;118375;-82
2020/12/24 16:28:17;;;;;;;;;;;10.90;81.40;;;;;;4870610;28;118029;-82
2020/12/24 16:30:43;;;;;;;;;;;10.90;81.40;;;;;;4872498;28;117496;-82
2020/12/24 16:33:09;;;;;;;;;;;10.90;81.40;;;;;;4872561;28;117804;-82
2020/12/24 16:35:34;;;;;;;;;;;10.90;81.40;;;;;;4871662;28;118331;-82
2020/12/24 16:38:00;;;;;;;;;;;10.90;81.40;;;;;;4855434;28;120075;-82
2020/12/24 16:40:26;;;;;;;;;;;10.90;81.40;;;;;;4856127;28;117626;-82
2020/12/24 16:42:51;;;;;;;;;;;10.90;81.40;;;;;;4857245;28;117761;-82
2020/12/24 16:45:20;;;;;;;;;;;10.90;82.00;;;;;;4855945;28;117756;-82
2020/12/24 16:47:45;;;;;;;;;;;10.90;81.40;;;;;;4855434;28;120815;-82
2020/12/24 16:50:11;;;;;;;;;;;10.90;81.40;;;;;;4857474;28;117447;-83
2020/12/24 16:52:37;;;;;;;;;;;10.90;81.40;;;;;;4857986;28;117251;-82
2020/12/24 16:55:02;;;;;;;;;;;10.90;81.40;;;;;;4856477;28;120427;-82
2020/12/24 16:57:28;;;;;;;;;;;10.90;81.40;;;;;;4856843;28;119196;-82
2020/12/24 16:59:53;;;;;;;;;;;10.90;81.40;;;;;;4857753;28;117556;-83
2020/12/24 17:02:19;;;;;;;;;;;10.90;81.40;;;;;;4858387;28;117572;-83
2020/12/24 17:04:44;;;;;;;;;;;10.90;81.40;;;;;;4856540;28;120337;-83
2020/12/24 17:07:10;;;;;;;;;;;10.90;81.40;;;;;;4857647;28;119575;-83
2020/12/24 17:09:36;;;;;;;;;;;10.90;81.40;;;;;;4858954;28;117652;-83
2020/12/24 17:12:01;;;;;;;;;;;10.90;81.40;;;;;;4858715;28;117486;-83
2020/12/24 17:14:30;;;;;;;;;;;10.90;81.40;;;;;;4858631;28;119569;-83
2020/12/24 17:16:55;;;;;;;;;;;10.90;81.40;;;;;;4874712;28;117386;-83
2020/12/24 17:19:21;;;;;;;;;;;10.90;81.30;;;;;;4876413;28;117567;-83
2020/12/24 17:21:47;;;;;;;;;;;10.90;81.40;;;;;;4872974;28;117362;-83
2020/12/24 17:24:12;;;;;;;;;;;10.90;81.40;;;;;;4853843;28;117672;-83
2020/12/24 17:26:38;;;;;;;;;;;10.90;81.40;;;;;;4853308;28;117347;-83
2020/12/24 17:29:04;;;;;;;;;;;10.80;81.40;;;;;;4854224;28;117454;-83
2020/12/24 17:31:29;;;;;;;;;;;10.90;81.40;;;;;;4870905;28;117537;-83
2020/12/24 17:33:58;;;;;;;;;;;10.90;81.40;;;;;;4869799;28;119062;-83
2020/12/24 17:36:26;;;;;;;;;;;10.90;81.30;;;;;;4869119;28;117379;-83
2020/12/24 17:38:51;;;;;;;;;;;10.90;81.40;;;;;;4855136;28;117712;-83
2020/12/24 17:41:21;;;;;;;;;;;10.90;81.40;;;;;;4854914;28;117855;-83
2020/12/24 17:43:46;;;;;;;;;;;10.80;81.30;;;;;;4854281;28;120303;-83
2020/12/24 17:46:12;;;;;;;;;;;10.90;81.40;;;;;;4854411;28;117738;-83
2020/12/24 17:48:38;;;;;;;;;;;10.90;81.40;;;;;;4855206;28;117585;-83
2020/12/24 17:51:09;;;;;;;;;;;10.80;81.40;;;;;;4855526;28;117478;-82
2020/12/24 17:53:45;;;;;;;;;;;10.90;81.40;;;;;;4855462;28;120703;-82
2020/12/24 17:56:11;;;;;;;;;;;10.90;81.40;;;;;;4854827;28;119468;-82
2020/12/24 17:58:36;;;;;;;;;;;10.90;81.40;;;;;;4855641;28;117756;-82
2020/12/24 18:01:02;;;;;;;;;;;10.90;81.40;;;;;;4855897;28;117887;-82
2020/12/24 18:03:28;;;;;;;;;;;10.90;81.40;;;;;;4855506;28;120132;-82
2020/12/24 18:05:53;;;;;;;;;;;10.90;81.40;;;;;;4854843;28;119892;-82
2020/12/24 18:08:19;;;;;;;;;;;10.90;81.40;;;;;;4856031;28;117477;-82
2020/12/24 18:10:48;;;;;;;;;;;10.80;81.40;;;;;;4856966;28;117728;-82
2020/12/24 18:13:14;;;;;;;;;;;10.90;81.40;;;;;;4856121;28;120849;-82
2020/12/24 18:15:39;;;;;;;;;;;10.90;81.40;;;;;;4856230;28;118473;-82
2020/12/24 18:18:17;;;;;;;;;;;10.90;81.40;;;;;;4859912;28;117494;-82
2020/12/24 18:20:43;;;;;;;;;;;10.90;81.40;;;;;;4877555;28;117559;-82
2020/12/24 18:23:08;;;;;;;;;;;10.80;81.30;;;;;;4860087;28;119279;-82
2020/12/24 18:25:34;;;;;;;;;;;10.90;81.40;;;;;;4859589;28;118035;-82
2020/12/24 18:28:00;;;;;;;;;;;10.90;81.40;;;;;;4861549;28;117625;-82
2020/12/24 18:30:25;;;;;;;;;;;10.90;81.40;;;;;;4862186;28;117703;-83
2020/12/24 18:32:51;;;;;;;;;;;10.80;81.40;;;;;;4861236;28;118747;-83
2020/12/24 18:35:16;;;;;;;;;;;10.90;81.40;;;;;;4858853;28;117568;-83
2020/12/24 18:37:43;;;;;;;;;;;10.80;81.40;;;;;;4856598;28;117907;-83
2020/12/24 18:40:09;;;;;;;;;;;10.80;81.40;;;;;;4856904;28;117581;-82
2020/12/24 18:42:35;;;;;;;;;;;10.80;81.40;;;;;;4856424;28;118456;-82
2020/12/24 18:45:00;;;;;;;;;;;10.80;81.40;;;;;;4855536;28;117599;-82
2020/12/24 18:47:26;;;;;;;;;;;10.80;81.40;;;;;;4856986;28;117897;-82
2020/12/24 18:49:52;;;;;;;;;;;10.80;81.30;;;;;;4856695;28;117910;-83
2020/12/24 18:52:17;;;;;;;;;;;10.80;81.40;;;;;;4856166;28;117635;-83
2020/12/24 18:54:45;;;;;;;;;;;10.80;81.40;;;;;;4871908;28;119515;-82
2020/12/24 18:57:16;;;;;;;;;;;10.80;81.40;;;;;;4856994;28;117442;-82
2020/12/24 18:59:44;;;;;;;;;;;10.80;81.30;;;;;;4857724;28;117830;-83
2020/12/24 19:02:12;;;;;;;;;;;10.80;81.40;;;;;;4873077;28;118358;-82
2020/12/24 19:04:37;;;;;;;;;;;10.80;81.40;;;;;;4857093;28;117843;-82
2020/12/24 19:07:03;;;;;;;;;;;10.80;81.40;;;;;;4857820;28;117282;-82
2020/12/24 19:09:28;;;;;;;;;;;10.80;81.40;;;;;;4858719;28;117463;-82
2020/12/24 19:11:55;;;;;;;;;;;10.80;81.90;;;;;;4857358;28;120677;-82
2020/12/24 19:14:20;;;;;;;;;;;10.80;81.40;;;;;;4856235;28;118888;-82
2020/12/24 19:16:46;;;;;;;;;;;10.80;81.40;;;;;;4858376;28;117555;-82
2020/12/24 19:19:11;;;;;;;;;;;10.80;81.40;;;;;;4859336;28;117966;-82
2020/12/24 19:21:37;;;;;;;;;;;10.80;81.40;;;;;;4874078;28;117534;-82
2020/12/24 19:24:08;;;;;;;;;;;10.80;81.10;;;;;;4858879;28;119089;-82
2020/12/24 19:26:35;;;;;;;;;;;10.80;81.40;;;;;;4860222;28;117789;-82
2020/12/24 19:29:00;;;;;;;;;;;10.80;81.40;;;;;;4860175;28;117945;-82
2020/12/24 19:31:29;;;;;;;;;;;10.70;81.30;;;;;;4860346;28;120560;-82
2020/12/24 19:33:54;;;;;;;;;;;10.80;81.40;;;;;;4860560;28;120400;-82
2020/12/24 19:36:21;;;;;;;;;;;10.70;81.80;;;;;;4861131;28;117482;-82
2020/12/24 19:38:48;;;;;;;;;;;10.70;81.30;;;;;;4861430;28;117332;-82
2020/12/24 19:41:14;;;;;;;;;;;10.70;81.20;;;;;;4860826;28;117393;-83
2020/12/24 19:43:43;;;;;;;;;;;10.80;81.40;;;;;;4861561;28;117410;-83
2020/12/24 19:46:14;;;;;;;;;;;10.70;81.30;;;;;;4862900;28;117463;-83
2020/12/24 19:48:43;;;;;;;;;;;10.70;81.80;;;;;;4861806;28;117470;-83
2020/12/24 19:51:09;;;;;;;;;;;10.70;81.30;;;;;;4855554;28;117903;-82
2020/12/24 19:53:34;;;;;;;;;;;10.70;81.20;;;;;;4871397;28;117472;-82
2020/12/24 19:56:00;;;;;;;;;;;10.70;81.30;;;;;;4872595;28;117424;-82
2020/12/24 19:58:26;;;;;;;;;;;10.70;81.20;;;;;;4855897;28;117391;-82
2020/12/24 20:00:56;;;;;;;;;;;10.70;81.30;;;;;;4855301;28;120520;-82
2020/12/24 20:03:25;;;;;;;;;;;10.70;81.40;;;;;;4854933;28;117813;-82
2020/12/24 20:05:53;;;;;;;;;;;10.70;81.20;;;;;;4855894;28;117727;-82
2020/12/24 20:08:22;;;;;;;;;;;10.70;81.10;;;;;;4857040;28;117831;-82
2020/12/24 20:10:48;;;;;;;;;;;10.70;81.20;;;;;;4855792;28;120082;-82
2020/12/24 20:13:16;;;;;;;;;;;10.70;81.20;;;;;;4871654;28;117780;-82
2020/12/24 20:15:42;;;;;;;;;;;10.70;81.20;;;;;;4873326;28;117339;-82
2020/12/24 20:18:07;;;;;;;;;;;10.70;81.20;;;;;;4873135;28;117447;-82
2020/12/24 20:20:33;;;;;;;;;;;10.70;81.20;;;;;;4856594;28;119186;-82
2020/12/24 20:23:01;;;;;;;;;;;10.70;81.20;;;;;;4856710;28;118368;-82
2020/12/24 20:25:26;;;;;;;;;;;10.70;81.10;;;;;;4857575;28;117451;-82
2020/12/24 20:27:52;;;;;;;;;;;10.70;81.20;;;;;;4857622;28;117790;-82
2020/12/24 20:30:18;;;;;;;;;;;10.70;81.20;;;;;;4857263;28;120199;-82
2020/12/24 20:32:44;;;;;;;;;;;10.70;81.20;;;;;;4858070;28;117985;-82
2020/12/24 20:35:10;;;;;;;;;;;10.70;81.20;;;;;;4858217;28;117642;-82
2020/12/24 20:37:36;;;;;;;;;;;10.70;81.10;;;;;;4859269;28;117406;-82
2020/12/24 20:40:01;;;;;;;;;;;10.70;81.20;;;;;;4873175;28;117446;-82
2020/12/24 20:42:30;;;;;;;;;;;10.70;81.10;;;;;;4874965;28;117742;-82
2020/12/24 20:44:55;;;;;;;;;;;10.70;81.10;;;;;;4875424;28;117487;-82
2020/12/24 20:47:21;;;;;;;;;;;10.70;81.10;;;;;;4860486;28;118306;-82
2020/12/24 20:49:46;;;;;;;;;;;10.70;81.10;;;;;;4858942;28;117524;-83
2020/12/24 20:52:12;;;;;;;;;;;10.70;81.10;;;;;;4859019;28;118868;-82
2020/12/24 20:54:37;;;;;;;;;;;10.70;81.10;;;;;;4860430;28;117497;-82
2020/12/24 20:57:03;;;;;;;;;;;10.70;81.10;;;;;;4861536;28;117836;-82
2020/12/24 20:59:30;;;;;;;;;;;10.70;81.00;;;;;;4860473;28;119509;-82
2020/12/24 21:01:55;;;;;;;;;;;10.70;81.00;;;;;;4859067;28;118603;-82
2020/12/24 21:04:21;;;;;;;;;;;10.70;80.90;;;;;;4854920;28;117453;-82
2020/12/24 21:06:46;;;;;;;;;;;10.70;81.00;;;;;;4854259;28;117826;-82
2020/12/24 21:09:12;;;;;;;;;;;10.60;81.40;;;;;;4870188;28;117628;-83
2020/12/24 21:11:38;;;;;;;;;;;10.60;80.80;;;;;;4854378;28;118590;-83
2020/12/24 21:14:03;;;;;;;;;;;10.60;80.90;;;;;;4871173;28;117470;-83
2020/12/24 21:16:29;;;;;;;;;;;10.60;80.90;;;;;;4855388;28;117960;-83
2020/12/24 21:18:54;;;;;;;;;;;10.70;81.00;;;;;;4854175;28;119697;-83
2020/12/24 21:21:21;;;;;;;;;;;10.60;80.80;;;;;;4870214;28;117639;-83
2020/12/24 21:23:46;;;;;;;;;;;10.60;81.00;;;;;;4855452;28;117582;-83
2020/12/24 21:26:21;;;;;;;;;;;10.60;80.80;;;;;;4871189;28;117630;-83
2020/12/24 21:28:47;;;;;;;;;;;10.60;80.80;;;;;;4870817;28;117712;-83
2020/12/24 21:31:15;;;;;;;;;;;10.60;80.80;;;;;;4854991;28;119425;-83
2020/12/24 21:33:41;;;;;;;;;;;10.60;80.80;;;;;;4856493;28;117559;-83
2020/12/24 21:36:07;;;;;;;;;;;10.60;80.80;;;;;;4856344;28;117315;-83
2020/12/24 21:38:38;;;;;;;;;;;10.60;80.70;;;;;;4855520;28;117462;-83
2020/12/24 21:41:14;;;;;;;;;;;10.60;80.80;;;;;;4855486;28;118394;-83
2020/12/24 21:43:39;;;;;;;;;;;10.60;80.70;;;;;;4857104;28;117920;-83
2020/12/24 21:46:05;;;;;;;;;;;10.60;80.90;;;;;;4857783;28;117869;-83
2020/12/24 21:48:31;;;;;;;;;;;10.60;80.60;;;;;;4856366;28;120180;-83
2020/12/24 21:51:02;;;;;;;;;;;10.60;80.80;;;;;;4857012;28;119682;-83
2020/12/24 21:53:28;;;;;;;;;;;10.60;80.80;;;;;;4858339;28;117446;-83
2020/12/24 21:55:54;;;;;;;;;;;10.60;80.70;;;;;;4857856;28;117830;-83
2020/12/24 21:58:19;;;;;;;;;;;10.50;80.50;;;;;;4856506;28;117602;-83
2020/12/24 22:00:50;;;;;;;;;;;10.50;80.70;;;;;;4856451;28;117548;-82
2020/12/24 22:03:15;;;;;;;;;;;10.50;80.70;;;;;;4858715;28;117526;-82
2020/12/24 22:05:43;;;;;;;;;;;10.50;80.70;;;;;;4873358;28;117488;-82
2020/12/24 22:08:09;;;;;;;;;;;10.50;80.70;;;;;;4857918;28;120361;-82
2020/12/24 22:10:34;;;;;;;;;;;10.50;80.70;;;;;;4858291;28;120300;-82
2020/12/24 22:13:00;;;;;;;;;;;10.50;80.70;;;;;;4875465;28;117377;-82
2020/12/24 22:15:28;;;;;;;;;;;10.50;80.70;;;;;;4859462;28;118018;-83
2020/12/24 22:17:57;;;;;;;;;;;10.50;80.60;;;;;;4853497;28;117646;-83
2020/12/24 22:20:23;;;;;;;;;;;10.50;80.60;;;;;;4853505;28;119045;-82
2020/12/24 22:22:48;;;;;;;;;;;10.50;80.60;;;;;;4870067;28;117947;-82
2020/12/24 22:25:14;;;;;;;;;;;10.50;80.60;;;;;;4853799;28;119261;-82
2020/12/24 22:27:40;;;;;;;;;;;10.50;80.60;;;;;;4869221;28;118392;-82
2020/12/24 22:30:05;;;;;;;;;;;10.50;80.50;;;;;;4852260;28;118710;-82
2020/12/24 22:32:31;;;;;;;;;;;10.50;80.60;;;;;;4854028;28;117254;-82
2020/12/24 22:34:56;;;;;;;;;;;10.50;80.40;;;;;;4854571;28;117424;-82
2020/12/24 22:37:22;;;;;;;;;;;10.50;80.40;;;;;;4853212;28;119286;-82
2020/12/24 22:39:48;;;;;;;;;;;10.50;80.40;;;;;;4853304;28;117756;-82
2020/12/24 22:42:13;;;;;;;;;;;10.50;80.40;;;;;;4854289;28;117354;-82
2020/12/24 22:44:39;;;;;;;;;;;10.50;80.40;;;;;;4854759;28;117831;-82
2020/12/24 22:47:04;;;;;;;;;;;10.50;80.40;;;;;;4869440;28;118394;-82
2020/12/24 22:49:30;;;;;;;;;;;10.50;80.30;;;;;;4869166;28;117657;-83